Terminal Aerodrome Forecast
Issued by NWS

Home | Current Version | Previous Version | Graphics & Text | Print | Product List | Glossary On
Versions: 1 2 3 4 5 6 7 8 9 10 11 12 13 14 15 16 17 18 19 20 21 22
000
FTUS43 KMPX 222339
TAFRWF
TAF
KRWF 222339Z 2300/2324 18018G26KT P6SM FEW050 SCT110
     FM230300 16014G22KT P6SM SCT050 BKN090 WS020/18045KT
     FM230800 16016G22KT P6SM BKN050 WS020/20050KT
      TEMPO 2310/2314 3SM TSRA BKN030CB
     FM231400 18016G22KT 6SM SHRA SCT025 OVC040
     FM231800 19014G20KT P6SM VCSH OVC050
      TEMPO 2320/2324 3SM TSRA BKN030CB=

USA.gov is the U.S. government's official web portal to all federal, state and local government web resources and services.